sensor_id;sensor_type;location;lat;lon;timestamp;P1;durP1;ratioP1;P2;durP2;ratioP2
78209;SDS011;67485;48.816;9.930;2024-01-15T00:01:33;28.07;;;9.83;;
78209;SDS011;67485;48.816;9.930;2024-01-15T00:03:59;30.85;;;10.90;;
78209;SDS011;67485;48.816;9.930;2024-01-15T00:06:25;32.87;;;10.43;;
78209;SDS011;67485;48.816;9.930;2024-01-15T00:08:52;31.23;;;10.75;;
78209;SDS011;67485;48.816;9.930;2024-01-15T00:11:17;33.13;;;10.48;;
78209;SDS011;67485;48.816;9.930;2024-01-15T00:13:43;27.43;;;9.47;;
78209;SDS011;67485;48.816;9.930;2024-01-15T00:16:09;30.17;;;10.17;;
78209;SDS011;67485;48.816;9.930;2024-01-15T00:18:35;28.48;;;10.05;;
78209;SDS011;67485;48.816;9.930;2024-01-15T00:21:01;32.25;;;10.63;;
78209;SDS011;67485;48.816;9.930;2024-01-15T00:23:27;33.83;;;12.00;;
78209;SDS011;67485;48.816;9.930;2024-01-15T00:25:52;30.55;;;9.25;;
78209;SDS011;67485;48.816;9.930;2024-01-15T00:28:18;29.87;;;10.63;;
78209;SDS011;67485;48.816;9.930;2024-01-15T00:30:44;30.55;;;10.40;;
78209;SDS011;67485;48.816;9.930;2024-01-15T00:33:09;26.83;;;9.50;;
78209;SDS011;67485;48.816;9.930;2024-01-15T00:35:37;32.33;;;10.77;;
78209;SDS011;67485;48.816;9.930;2024-01-15T00:38:03;28.87;;;9.67;;
78209;SDS011;67485;48.816;9.930;2024-01-15T00:40:29;31.25;;;9.68;;
78209;SDS011;67485;48.816;9.930;2024-01-15T00:42:54;24.63;;;8.83;;
78209;SDS011;67485;48.816;9.930;2024-01-15T00:45:20;35.05;;;11.25;;
78209;SDS011;67485;48.816;9.930;2024-01-15T00:47:46;26.10;;;9.73;;
78209;SDS011;67485;48.816;9.930;2024-01-15T00:50:11;29.65;;;10.05;;
78209;SDS011;67485;48.816;9.930;2024-01-15T00:52:37;31.20;;;9.40;;
78209;SDS011;67485;48.816;9.930;2024-01-15T00:55:03;25.80;;;9.10;;
78209;SDS011;67485;48.816;9.930;2024-01-15T00:57:29;27.38;;;10.25;;
78209;SDS011;67485;48.816;9.930;2024-01-15T00:59:55;28.97;;;9.63;;
78209;SDS011;67485;48.816;9.930;2024-01-15T01:02:20;26.15;;;9.13;;
78209;SDS011;67485;48.816;9.930;2024-01-15T01:04:46;26.40;;;9.87;;
78209;SDS011;67485;48.816;9.930;2024-01-15T01:07:12;32.67;;;10.50;;
78209;SDS011;67485;48.816;9.930;2024-01-15T01:09:37;31.17;;;9.60;;
78209;SDS011;67485;48.816;9.930;2024-01-15T01:12:03;30.30;;;8.97;;
78209;SDS011;67485;48.816;9.930;2024-01-15T01:14:29;26.30;;;9.43;;
78209;SDS011;67485;48.816;9.930;2024-01-15T01:16:54;27.50;;;9.07;;
78209;SDS011;67485;48.816;9.930;2024-01-15T01:19:20;28.80;;;9.57;;
78209;SDS011;67485;48.816;9.930;2024-01-15T01:21:46;24.33;;;8.53;;
78209;SDS011;67485;48.816;9.930;2024-01-15T01:24:11;26.15;;;9.70;;
78209;SDS011;67485;48.816;9.930;2024-01-15T01:26:37;28.47;;;9.13;;
78209;SDS011;67485;48.816;9.930;2024-01-15T01:29:03;29.00;;;9.90;;
78209;SDS011;67485;48.816;9.930;2024-01-15T01:31:28;27.25;;;9.68;;
78209;SDS011;67485;48.816;9.930;2024-01-15T01:33:54;30.03;;;9.07;;
78209;SDS011;67485;48.816;9.930;2024-01-15T01:36:19;25.88;;;9.95;;
78209;SDS011;67485;48.816;9.930;2024-01-15T01:38:45;25.60;;;9.07;;
78209;SDS011;67485;48.816;9.930;2024-01-15T01:41:11;24.60;;;8.82;;
78209;SDS011;67485;48.816;9.930;2024-01-15T01:43:36;27.05;;;8.38;;
78209;SDS011;67485;48.816;9.930;2024-01-15T01:46:02;22.53;;;8.37;;
78209;SDS011;67485;48.816;9.930;2024-01-15T01:48:28;25.17;;;8.48;;
78209;SDS011;67485;48.816;9.930;2024-01-15T01:50:57;23.40;;;8.38;;
78209;SDS011;67485;48.816;9.930;2024-01-15T01:53:24;22.92;;;7.82;;
78209;SDS011;67485;48.816;9.930;2024-01-15T01:55:52;25.70;;;8.98;;
78209;SDS011;67485;48.816;9.930;2024-01-15T01:58:18;19.50;;;7.90;;
78209;SDS011;67485;48.816;9.930;2024-01-15T02:00:45;18.55;;;7.25;;
78209;SDS011;67485;48.816;9.930;2024-01-15T02:03:12;18.20;;;6.07;;
78209;SDS011;67485;48.816;9.930;2024-01-15T02:05:38;17.45;;;6.32;;
78209;SDS011;67485;48.816;9.930;2024-01-15T02:08:05;22.77;;;7.37;;
78209;SDS011;67485;48.816;9.930;2024-01-15T02:10:31;18.40;;;5.85;;
78209;SDS011;67485;48.816;9.930;2024-01-15T02:12:57;18.45;;;6.13;;
78209;SDS011;67485;48.816;9.930;2024-01-15T02:15:23;16.40;;;5.75;;
78209;SDS011;67485;48.816;9.930;2024-01-15T02:17:58;14.88;;;5.53;;
78209;SDS011;67485;48.816;9.930;2024-01-15T02:20:27;17.57;;;5.50;;
78209;SDS011;67485;48.816;9.930;2024-01-15T02:22:53;13.75;;;5.50;;
78209;SDS011;67485;48.816;9.930;2024-01-15T02:25:19;14.17;;;5.93;;
78209;SDS011;67485;48.816;9.930;2024-01-15T02:27:45;18.92;;;6.38;;
78209;SDS011;67485;48.816;9.930;2024-01-15T02:30:12;16.33;;;5.78;;
78209;SDS011;67485;48.816;9.930;2024-01-15T02:32:38;18.20;;;4.88;;
78209;SDS011;67485;48.816;9.930;2024-01-15T02:35:04;14.70;;;5.15;;
78209;SDS011;67485;48.816;9.930;2024-01-15T02:37:30;12.70;;;5.53;;
78209;SDS011;67485;48.816;9.930;2024-01-15T02:39:55;16.17;;;6.03;;
78209;SDS011;67485;48.816;9.930;2024-01-15T02:42:21;16.00;;;5.60;;
78209;SDS011;67485;48.816;9.930;2024-01-15T02:44:47;16.63;;;5.75;;
78209;SDS011;67485;48.816;9.930;2024-01-15T02:47:14;18.13;;;6.38;;
78209;SDS011;67485;48.816;9.930;2024-01-15T02:49:39;15.27;;;5.43;;
78209;SDS011;67485;48.816;9.930;2024-01-15T02:52:06;17.20;;;5.75;;
78209;SDS011;67485;48.816;9.930;2024-01-15T02:54:31;17.83;;;5.80;;
78209;SDS011;67485;48.816;9.930;2024-01-15T02:56:57;17.35;;;6.10;;
78209;SDS011;67485;48.816;9.930;2024-01-15T02:59:23;15.67;;;5.73;;
78209;SDS011;67485;48.816;9.930;2024-01-15T03:01:48;16.67;;;5.50;;
78209;SDS011;67485;48.816;9.930;2024-01-15T03:04:14;15.03;;;5.70;;
78209;SDS011;67485;48.816;9.930;2024-01-15T03:06:40;13.05;;;5.20;;
78209;SDS011;67485;48.816;9.930;2024-01-15T03:09:05;13.50;;;5.13;;
78209;SDS011;67485;48.816;9.930;2024-01-15T03:11:37;15.33;;;5.43;;
78209;SDS011;67485;48.816;9.930;2024-01-15T03:14:04;15.13;;;4.65;;
78209;SDS011;67485;48.816;9.930;2024-01-15T03:16:30;16.83;;;5.50;;
78209;SDS011;67485;48.816;9.930;2024-01-15T03:18:55;16.93;;;5.73;;
78209;SDS011;67485;48.816;9.930;2024-01-15T03:21:21;13.90;;;5.03;;
78209;SDS011;67485;48.816;9.930;2024-01-15T03:23:46;13.40;;;4.93;;
78209;SDS011;67485;48.816;9.930;2024-01-15T03:26:12;15.07;;;4.67;;
78209;SDS011;67485;48.816;9.930;2024-01-15T03:28:38;16.60;;;5.47;;
78209;SDS011;67485;48.816;9.930;2024-01-15T03:31:03;13.00;;;5.30;;
78209;SDS011;67485;48.816;9.930;2024-01-15T03:33:29;14.48;;;4.38;;
78209;SDS011;67485;48.816;9.930;2024-01-15T03:35:55;13.57;;;4.75;;
78209;SDS011;67485;48.816;9.930;2024-01-15T03:38:20;13.87;;;4.73;;
78209;SDS011;67485;48.816;9.930;2024-01-15T03:40:46;14.32;;;5.15;;
78209;SDS011;67485;48.816;9.930;2024-01-15T03:43:12;14.97;;;5.73;;
78209;SDS011;67485;48.816;9.930;2024-01-15T03:45:37;15.90;;;5.20;;
78209;SDS011;67485;48.816;9.930;2024-01-15T03:48:03;12.77;;;4.70;;
78209;SDS011;67485;48.816;9.930;2024-01-15T03:50:29;14.05;;;4.90;;
78209;SDS011;67485;48.816;9.930;2024-01-15T03:52:55;15.13;;;5.10;;
78209;SDS011;67485;48.816;9.930;2024-01-15T03:55:20;12.38;;;5.00;;
78209;SDS011;67485;48.816;9.930;2024-01-15T03:57:46;12.87;;;4.80;;
78209;SDS011;67485;48.816;9.930;2024-01-15T04:00:12;14.80;;;5.10;;
78209;SDS011;67485;48.816;9.930;2024-01-15T04:02:39;13.85;;;5.10;;
78209;SDS011;67485;48.816;9.930;2024-01-15T04:05:05;13.93;;;4.73;;
78209;SDS011;67485;48.816;9.930;2024-01-15T04:07:30;16.80;;;5.40;;
78209;SDS011;67485;48.816;9.930;2024-01-15T04:09:56;15.57;;;5.97;;
78209;SDS011;67485;48.816;9.930;2024-01-15T04:12:22;12.20;;;4.63;;
78209;SDS011;67485;48.816;9.930;2024-01-15T04:14:47;16.42;;;5.28;;
78209;SDS011;67485;48.816;9.930;2024-01-15T04:17:13;17.37;;;5.00;;
78209;SDS011;67485;48.816;9.930;2024-01-15T04:19:39;12.93;;;5.07;;
78209;SDS011;67485;48.816;9.930;2024-01-15T04:22:04;12.10;;;4.30;;
78209;SDS011;67485;48.816;9.930;2024-01-15T04:24:31;14.73;;;5.10;;
78209;SDS011;67485;48.816;9.930;2024-01-15T04:26:57;14.13;;;4.63;;
78209;SDS011;67485;48.816;9.930;2024-01-15T04:29:22;12.10;;;4.75;;
78209;SDS011;67485;48.816;9.930;2024-01-15T04:31:48;14.07;;;4.57;;
78209;SDS011;67485;48.816;9.930;2024-01-15T04:34:14;14.53;;;4.77;;
78209;SDS011;67485;48.816;9.930;2024-01-15T04:36:39;11.50;;;4.18;;
78209;SDS011;67485;48.816;9.930;2024-01-15T04:39:06;14.57;;;4.85;;
78209;SDS011;67485;48.816;9.930;2024-01-15T04:41:31;13.27;;;4.23;;
78209;SDS011;67485;48.816;9.930;2024-01-15T04:43:57;14.73;;;4.57;;
78209;SDS011;67485;48.816;9.930;2024-01-15T04:46:23;12.27;;;4.17;;
78209;SDS011;67485;48.816;9.930;2024-01-15T04:48:48;11.70;;;4.30;;
78209;SDS011;67485;48.816;9.930;2024-01-15T04:51:14;13.13;;;4.03;;
78209;SDS011;67485;48.816;9.930;2024-01-15T04:53:40;13.93;;;4.63;;
78209;SDS011;67485;48.816;9.930;2024-01-15T04:56:06;13.65;;;4.40;;
78209;SDS011;67485;48.816;9.930;2024-01-15T04:58:32;14.13;;;4.65;;
78209;SDS011;67485;48.816;9.930;2024-01-15T05:00:57;11.57;;;4.07;;
78209;SDS011;67485;48.816;9.930;2024-01-15T05:03:23;10.50;;;4.43;;
78209;SDS011;67485;48.816;9.930;2024-01-15T05:05:49;12.25;;;4.22;;
78209;SDS011;67485;48.816;9.930;2024-01-15T05:08:14;10.70;;;4.10;;
78209;SDS011;67485;48.816;9.930;2024-01-15T05:10:40;9.75;;;4.28;;
78209;SDS011;67485;48.816;9.930;2024-01-15T05:13:05;13.80;;;4.37;;
78209;SDS011;67485;48.816;9.930;2024-01-15T05:15:31;12.70;;;4.37;;
78209;SDS011;67485;48.816;9.930;2024-01-15T05:17:57;12.55;;;4.20;;
78209;SDS011;67485;48.816;9.930;2024-01-15T05:20:22;12.00;;;4.90;;
78209;SDS011;67485;48.816;9.930;2024-01-15T05:22:48;14.57;;;4.63;;
78209;SDS011;67485;48.816;9.930;2024-01-15T05:25:14;10.83;;;4.30;;
78209;SDS011;67485;48.816;9.930;2024-01-15T05:27:39;12.27;;;4.22;;
78209;SDS011;67485;48.816;9.930;2024-01-15T05:30:05;11.43;;;3.90;;
78209;SDS011;67485;48.816;9.930;2024-01-15T05:32:31;9.70;;;3.60;;
78209;SDS011;67485;48.816;9.930;2024-01-15T05:34:57;14.82;;;4.65;;
78209;SDS011;67485;48.816;9.930;2024-01-15T05:37:23;14.23;;;4.97;;
78209;SDS011;67485;48.816;9.930;2024-01-15T05:39:48;15.05;;;5.50;;
78209;SDS011;67485;48.816;9.930;2024-01-15T05:42:14;16.00;;;6.38;;
78209;SDS011;67485;48.816;9.930;2024-01-15T05:44:40;14.67;;;4.77;;
78209;SDS011;67485;48.816;9.930;2024-01-15T05:47:05;14.00;;;4.88;;
78209;SDS011;67485;48.816;9.930;2024-01-15T05:49:31;12.33;;;4.27;;
78209;SDS011;67485;48.816;9.930;2024-01-15T05:51:56;13.10;;;4.45;;
78209;SDS011;67485;48.816;9.930;2024-01-15T05:54:22;12.95;;;4.53;;
78209;SDS011;67485;48.816;9.930;2024-01-15T05:56:48;10.73;;;4.80;;
78209;SDS011;67485;48.816;9.930;2024-01-15T05:59:13;11.88;;;4.22;;
78209;SDS011;67485;48.816;9.930;2024-01-15T06:01:39;13.60;;;4.83;;
78209;SDS011;67485;48.816;9.930;2024-01-15T06:04:05;11.27;;;4.53;;
78209;SDS011;67485;48.816;9.930;2024-01-15T06:06:31;12.83;;;4.30;;
78209;SDS011;67485;48.816;9.930;2024-01-15T06:08:57;12.23;;;4.30;;
78209;SDS011;67485;48.816;9.930;2024-01-15T06:11:29;13.27;;;4.22;;
78209;SDS011;67485;48.816;9.930;2024-01-15T06:13:55;15.77;;;4.88;;
78209;SDS011;67485;48.816;9.930;2024-01-15T06:16:21;12.65;;;4.28;;
78209;SDS011;67485;48.816;9.930;2024-01-15T06:18:47;10.60;;;4.45;;
78209;SDS011;67485;48.816;9.930;2024-01-15T06:21:13;11.85;;;4.13;;
78209;SDS011;67485;48.816;9.930;2024-01-15T06:23:40;12.50;;;4.18;;
78209;SDS011;67485;48.816;9.930;2024-01-15T06:26:05;16.27;;;5.13;;
78209;SDS011;67485;48.816;9.930;2024-01-15T06:28:31;9.85;;;4.43;;
78209;SDS011;67485;48.816;9.930;2024-01-15T06:30:57;13.27;;;4.60;;
78209;SDS011;67485;48.816;9.930;2024-01-15T06:33:23;14.30;;;4.38;;
78209;SDS011;67485;48.816;9.930;2024-01-15T06:35:49;11.65;;;4.43;;
78209;SDS011;67485;48.816;9.930;2024-01-15T06:38:15;12.90;;;4.78;;
78209;SDS011;67485;48.816;9.930;2024-01-15T06:40:41;12.93;;;4.27;;
78209;SDS011;67485;48.816;9.930;2024-01-15T06:43:16;13.15;;;4.93;;
78209;SDS011;67485;48.816;9.930;2024-01-15T06:45:43;13.38;;;4.65;;
78209;SDS011;67485;48.816;9.930;2024-01-15T06:48:09;11.52;;;4.60;;
78209;SDS011;67485;48.816;9.930;2024-01-15T06:50:35;12.70;;;4.90;;
78209;SDS011;67485;48.816;9.930;2024-01-15T06:53:01;13.68;;;4.57;;
78209;SDS011;67485;48.816;9.930;2024-01-15T06:55:26;14.93;;;4.13;;
78209;SDS011;67485;48.816;9.930;2024-01-15T06:57:53;16.83;;;5.07;;
78209;SDS011;67485;48.816;9.930;2024-01-15T07:00:18;14.27;;;4.78;;
78209;SDS011;67485;48.816;9.930;2024-01-15T07:02:45;12.13;;;4.50;;
78209;SDS011;67485;48.816;9.930;2024-01-15T07:05:11;10.93;;;4.63;;
78209;SDS011;67485;48.816;9.930;2024-01-15T07:07:36;13.00;;;4.85;;
78209;SDS011;67485;48.816;9.930;2024-01-15T07:10:02;15.97;;;5.23;;
78209;SDS011;67485;48.816;9.930;2024-01-15T07:12:29;16.02;;;4.95;;
78209;SDS011;67485;48.816;9.930;2024-01-15T07:14:55;13.80;;;5.10;;
78209;SDS011;67485;48.816;9.930;2024-01-15T07:17:21;13.52;;;5.05;;
78209;SDS011;67485;48.816;9.930;2024-01-15T07:19:47;11.47;;;4.57;;
78209;SDS011;67485;48.816;9.930;2024-01-15T07:22:13;10.43;;;4.75;;
78209;SDS011;67485;48.816;9.930;2024-01-15T07:24:40;13.68;;;4.88;;
78209;SDS011;67485;48.816;9.930;2024-01-15T07:27:05;16.38;;;4.60;;
78209;SDS011;67485;48.816;9.930;2024-01-15T07:29:31;12.07;;;4.90;;
78209;SDS011;67485;48.816;9.930;2024-01-15T07:32:02;14.15;;;5.05;;
78209;SDS011;67485;48.816;9.930;2024-01-15T07:34:29;12.85;;;4.43;;
78209;SDS011;67485;48.816;9.930;2024-01-15T07:36:55;11.45;;;4.47;;
78209;SDS011;67485;48.816;9.930;2024-01-15T07:39:21;12.07;;;4.40;;
78209;SDS011;67485;48.816;9.930;2024-01-15T07:41:48;11.30;;;4.55;;
78209;SDS011;67485;48.816;9.930;2024-01-15T07:44:14;11.70;;;4.70;;
78209;SDS011;67485;48.816;9.930;2024-01-15T07:46:40;11.13;;;4.40;;
78209;SDS011;67485;48.816;9.930;2024-01-15T07:49:09;12.38;;;4.95;;
78209;SDS011;67485;48.816;9.930;2024-01-15T07:51:35;12.85;;;4.20;;
78209;SDS011;67485;48.816;9.930;2024-01-15T07:54:01;12.77;;;4.60;;
78209;SDS011;67485;48.816;9.930;2024-01-15T07:56:26;12.85;;;4.70;;
78209;SDS011;67485;48.816;9.930;2024-01-15T07:58:52;11.70;;;4.73;;
78209;SDS011;67485;48.816;9.930;2024-01-15T08:01:18;14.48;;;4.78;;
78209;SDS011;67485;48.816;9.930;2024-01-15T08:03:44;11.03;;;4.40;;
78209;SDS011;67485;48.816;9.930;2024-01-15T08:06:09;12.85;;;4.63;;
78209;SDS011;67485;48.816;9.930;2024-01-15T08:08:36;11.80;;;4.70;;
78209;SDS011;67485;48.816;9.930;2024-01-15T08:11:04;10.35;;;4.35;;
78209;SDS011;67485;48.816;9.930;2024-01-15T08:13:30;10.52;;;3.90;;
78209;SDS011;67485;48.816;9.930;2024-01-15T08:15:56;9.70;;;4.05;;
78209;SDS011;67485;48.816;9.930;2024-01-15T08:18:21;11.82;;;4.63;;
78209;SDS011;67485;48.816;9.930;2024-01-15T08:20:47;11.60;;;4.53;;
78209;SDS011;67485;48.816;9.930;2024-01-15T08:23:13;12.90;;;4.68;;
78209;SDS011;67485;48.816;9.930;2024-01-15T08:25:39;14.30;;;4.93;;
78209;SDS011;67485;48.816;9.930;2024-01-15T08:28:04;11.80;;;4.30;;
78209;SDS011;67485;48.816;9.930;2024-01-15T08:30:30;12.00;;;4.43;;
78209;SDS011;67485;48.816;9.930;2024-01-15T08:32:56;13.50;;;4.80;;
78209;SDS011;67485;48.816;9.930;2024-01-15T08:35:22;12.15;;;4.82;;
78209;SDS011;67485;48.816;9.930;2024-01-15T08:37:51;12.45;;;4.88;;
78209;SDS011;67485;48.816;9.930;2024-01-15T08:40:18;12.30;;;4.55;;
78209;SDS011;67485;48.816;9.930;2024-01-15T08:42:44;9.98;;;4.25;;
78209;SDS011;67485;48.816;9.930;2024-01-15T08:45:11;12.27;;;4.72;;
78209;SDS011;67485;48.816;9.930;2024-01-15T08:47:37;15.02;;;4.50;;
78209;SDS011;67485;48.816;9.930;2024-01-15T08:50:03;14.23;;;4.50;;
78209;SDS011;67485;48.816;9.930;2024-01-15T08:52:29;12.10;;;5.15;;
78209;SDS011;67485;48.816;9.930;2024-01-15T08:54:56;11.93;;;4.30;;
78209;SDS011;67485;48.816;9.930;2024-01-15T08:57:22;9.35;;;4.22;;
78209;SDS011;67485;48.816;9.930;2024-01-15T08:59:48;12.40;;;4.50;;
78209;SDS011;67485;48.816;9.930;2024-01-15T09:02:14;12.00;;;4.88;;
78209;SDS011;67485;48.816;9.930;2024-01-15T09:04:40;11.02;;;4.13;;
78209;SDS011;67485;48.816;9.930;2024-01-15T09:07:07;11.63;;;4.82;;
78209;SDS011;67485;48.816;9.930;2024-01-15T09:09:33;9.38;;;4.30;;
78209;SDS011;67485;48.816;9.930;2024-01-15T09:12:00;10.88;;;3.72;;
78209;SDS011;67485;48.816;9.930;2024-01-15T09:14:25;9.63;;;4.13;;
78209;SDS011;67485;48.816;9.930;2024-01-15T09:16:52;12.63;;;4.32;;
78209;SDS011;67485;48.816;9.930;2024-01-15T09:19:18;9.50;;;4.32;;
78209;SDS011;67485;48.816;9.930;2024-01-15T09:21:44;10.63;;;3.92;;
78209;SDS011;67485;48.816;9.930;2024-01-15T09:24:10;12.13;;;4.27;;
78209;SDS011;67485;48.816;9.930;2024-01-15T09:26:36;11.38;;;4.32;;
78209;SDS011;67485;48.816;9.930;2024-01-15T09:29:02;10.30;;;3.77;;
78209;SDS011;67485;48.816;9.930;2024-01-15T09:31:28;8.13;;;3.67;;
78209;SDS011;67485;48.816;9.930;2024-01-15T09:33:54;10.80;;;3.60;;
78209;SDS011;67485;48.816;9.930;2024-01-15T09:36:23;10.10;;;3.80;;
78209;SDS011;67485;48.816;9.930;2024-01-15T09:38:49;11.60;;;4.43;;
78209;SDS011;67485;48.816;9.930;2024-01-15T09:41:15;11.23;;;4.20;;
78209;SDS011;67485;48.816;9.930;2024-01-15T09:43:40;9.87;;;3.30;;
78209;SDS011;67485;48.816;9.930;2024-01-15T09:46:07;9.48;;;3.30;;
78209;SDS011;67485;48.816;9.930;2024-01-15T09:48:33;8.65;;;3.33;;
78209;SDS011;67485;48.816;9.930;2024-01-15T09:51:01;10.45;;;3.85;;
78209;SDS011;67485;48.816;9.930;2024-01-15T09:53:27;9.87;;;4.10;;
78209;SDS011;67485;48.816;9.930;2024-01-15T09:55:53;8.93;;;3.42;;
78209;SDS011;67485;48.816;9.930;2024-01-15T09:58:18;10.37;;;3.77;;
78209;SDS011;67485;48.816;9.930;2024-01-15T10:00:44;12.10;;;4.03;;
78209;SDS011;67485;48.816;9.930;2024-01-15T10:03:12;9.07;;;3.67;;
78209;SDS011;67485;48.816;9.930;2024-01-15T10:05:38;7.32;;;3.60;;
78209;SDS011;67485;48.816;9.930;2024-01-15T10:08:04;9.85;;;3.83;;
78209;SDS011;67485;48.816;9.930;2024-01-15T10:10:30;11.70;;;3.75;;
78209;SDS011;67485;48.816;9.930;2024-01-15T10:12:57;8.85;;;3.33;;
78209;SDS011;67485;48.816;9.930;2024-01-15T10:15:25;9.30;;;3.30;;
78209;SDS011;67485;48.816;9.930;2024-01-15T10:17:51;9.05;;;3.35;;
78209;SDS011;67485;48.816;9.930;2024-01-15T10:20:17;7.75;;;3.20;;
78209;SDS011;67485;48.816;9.930;2024-01-15T10:22:43;12.02;;;4.00;;
78209;SDS011;67485;48.816;9.930;2024-01-15T10:25:13;8.75;;;3.38;;
78209;SDS011;67485;48.816;9.930;2024-01-15T10:27:40;7.90;;;2.80;;
78209;SDS011;67485;48.816;9.930;2024-01-15T10:30:09;9.13;;;2.92;;
78209;SDS011;67485;48.816;9.930;2024-01-15T10:32:36;6.90;;;3.00;;
78209;SDS011;67485;48.816;9.930;2024-01-15T10:35:01;10.33;;;3.37;;
78209;SDS011;67485;48.816;9.930;2024-01-15T10:37:32;7.05;;;3.00;;
78209;SDS011;67485;48.816;9.930;2024-01-15T10:39:58;8.00;;;3.22;;
78209;SDS011;67485;48.816;9.930;2024-01-15T10:42:27;8.68;;;2.97;;
78209;SDS011;67485;48.816;9.930;2024-01-15T10:44:53;9.00;;;3.47;;
78209;SDS011;67485;48.816;9.930;2024-01-15T10:47:18;9.45;;;3.25;;
78209;SDS011;67485;48.816;9.930;2024-01-15T10:49:45;11.40;;;3.30;;
78209;SDS011;67485;48.816;9.930;2024-01-15T10:52:11;9.02;;;3.38;;
78209;SDS011;67485;48.816;9.930;2024-01-15T10:54:37;6.90;;;3.15;;
78209;SDS011;67485;48.816;9.930;2024-01-15T10:57:03;9.30;;;3.08;;
78209;SDS011;67485;48.816;9.930;2024-01-15T10:59:29;10.18;;;3.45;;
78209;SDS011;67485;48.816;9.930;2024-01-15T11:01:55;8.55;;;3.30;;
78209;SDS011;67485;48.816;9.930;2024-01-15T11:04:21;6.50;;;2.88;;
78209;SDS011;67485;48.816;9.930;2024-01-15T11:06:52;8.27;;;3.03;;
78209;SDS011;67485;48.816;9.930;2024-01-15T11:09:21;6.25;;;2.85;;
78209;SDS011;67485;48.816;9.930;2024-01-15T11:11:47;10.18;;;3.03;;
78209;SDS011;67485;48.816;9.930;2024-01-15T11:15:17;8.75;;;2.67;;
78209;SDS011;67485;48.816;9.930;2024-01-15T11:17:13;7.03;;;2.90;;
78209;SDS011;67485;48.816;9.930;2024-01-15T11:22:10;5.97;;;2.92;;
78209;SDS011;67485;48.816;9.930;2024-01-15T11:25:01;6.05;;;2.58;;
78209;SDS011;67485;48.816;9.930;2024-01-15T11:27:43;4.47;;;2.15;;
78209;SDS011;67485;48.816;9.930;2024-01-15T11:30:17;6.70;;;2.40;;
78209;SDS011;67485;48.816;9.930;2024-01-15T11:32:45;6.45;;;2.53;;
78209;SDS011;67485;48.816;9.930;2024-01-15T11:35:12;7.47;;;2.90;;
78209;SDS011;67485;48.816;9.930;2024-01-15T11:40:20;6.65;;;2.22;;
78209;SDS011;67485;48.816;9.930;2024-01-15T11:42:47;6.03;;;2.10;;
78209;SDS011;67485;48.816;9.930;2024-01-15T11:45:15;5.90;;;2.20;;
78209;SDS011;67485;48.816;9.930;2024-01-15T11:50:12;6.03;;;2.15;;
78209;SDS011;67485;48.816;9.930;2024-01-15T11:52:39;8.00;;;2.67;;
78209;SDS011;67485;48.816;9.930;2024-01-15T11:55:19;5.50;;;2.33;;
78209;SDS011;67485;48.816;9.930;2024-01-15T11:57:52;6.00;;;2.60;;
78209;SDS011;67485;48.816;9.930;2024-01-15T12:00:20;7.03;;;2.25;;
78209;SDS011;67485;48.816;9.930;2024-01-15T12:02:47;4.78;;;2.25;;
78209;SDS011;67485;48.816;9.930;2024-01-15T12:05:17;10.40;;;2.30;;
78209;SDS011;67485;48.816;9.930;2024-01-15T12:07:47;6.32;;;2.58;;
78209;SDS011;67485;48.816;9.930;2024-01-15T12:15:32;6.60;;;2.70;;
78209;SDS011;67485;48.816;9.930;2024-01-15T12:17:59;6.25;;;2.50;;
78209;SDS011;67485;48.816;9.930;2024-01-15T12:20:26;6.25;;;2.70;;
78209;SDS011;67485;48.816;9.930;2024-01-15T12:22:52;7.10;;;2.25;;
78209;SDS011;67485;48.816;9.930;2024-01-15T12:25:18;7.20;;;3.00;;
78209;SDS011;67485;48.816;9.930;2024-01-15T12:27:44;7.15;;;2.90;;
78209;SDS011;67485;48.816;9.930;2024-01-15T12:30:11;5.70;;;2.67;;
78209;SDS011;67485;48.816;9.930;2024-01-15T12:32:38;6.07;;;2.80;;
78209;SDS011;67485;48.816;9.930;2024-01-15T12:35:06;7.32;;;2.95;;
78209;SDS011;67485;48.816;9.930;2024-01-15T12:37:31;5.53;;;2.38;;
78209;SDS011;67485;48.816;9.930;2024-01-15T12:39:58;6.00;;;2.63;;
78209;SDS011;67485;48.816;9.930;2024-01-15T12:42:24;6.32;;;2.83;;
78209;SDS011;67485;48.816;9.930;2024-01-15T12:44:50;5.97;;;2.50;;
78209;SDS011;67485;48.816;9.930;2024-01-15T12:47:15;6.32;;;2.72;;
78209;SDS011;67485;48.816;9.930;2024-01-15T12:49:46;6.00;;;2.80;;
78209;SDS011;67485;48.816;9.930;2024-01-15T12:52:15;7.40;;;2.47;;
78209;SDS011;67485;48.816;9.930;2024-01-15T12:54:44;5.80;;;2.58;;
78209;SDS011;67485;48.816;9.930;2024-01-15T12:57:09;6.60;;;2.80;;
78209;SDS011;67485;48.816;9.930;2024-01-15T12:59:35;5.00;;;2.60;;
78209;SDS011;67485;48.816;9.930;2024-01-15T13:02:00;6.50;;;2.53;;
78209;SDS011;67485;48.816;9.930;2024-01-15T13:04:26;4.28;;;2.08;;
78209;SDS011;67485;48.816;9.930;2024-01-15T13:06:52;4.83;;;2.10;;
78209;SDS011;67485;48.816;9.930;2024-01-15T13:09:18;6.45;;;2.28;;
78209;SDS011;67485;48.816;9.930;2024-01-15T13:11:44;8.43;;;2.65;;
78209;SDS011;67485;48.816;9.930;2024-01-15T13:14:10;5.63;;;2.17;;
78209;SDS011;67485;48.816;9.930;2024-01-15T13:16:36;12.20;;;2.13;;
78209;SDS011;67485;48.816;9.930;2024-01-15T13:19:02;7.50;;;2.30;;
78209;SDS011;67485;48.816;9.930;2024-01-15T13:21:29;7.50;;;2.08;;
78209;SDS011;67485;48.816;9.930;2024-01-15T13:23:55;6.97;;;2.30;;
78209;SDS011;67485;48.816;9.930;2024-01-15T13:26:21;7.18;;;2.10;;
78209;SDS011;67485;48.816;9.930;2024-01-15T13:28:47;5.35;;;2.00;;
78209;SDS011;67485;48.816;9.930;2024-01-15T13:31:12;5.85;;;2.20;;
78209;SDS011;67485;48.816;9.930;2024-01-15T13:33:38;6.07;;;2.30;;
78209;SDS011;67485;48.816;9.930;2024-01-15T13:36:05;4.82;;;2.08;;
78209;SDS011;67485;48.816;9.930;2024-01-15T13:38:33;7.30;;;3.10;;
78209;SDS011;67485;48.816;9.930;2024-01-15T13:41:02;5.75;;;2.78;;
78209;SDS011;67485;48.816;9.930;2024-01-15T13:43:28;5.63;;;2.40;;
78209;SDS011;67485;48.816;9.930;2024-01-15T13:45:54;5.10;;;1.93;;
78209;SDS011;67485;48.816;9.930;2024-01-15T13:48:19;6.93;;;2.60;;
78209;SDS011;67485;48.816;9.930;2024-01-15T13:50:45;5.47;;;2.43;;
78209;SDS011;67485;48.816;9.930;2024-01-15T13:53:11;9.38;;;2.40;;
78209;SDS011;67485;48.816;9.930;2024-01-15T13:55:37;5.20;;;2.07;;
78209;SDS011;67485;48.816;9.930;2024-01-15T13:58:02;4.95;;;2.63;;
78209;SDS011;67485;48.816;9.930;2024-01-15T14:00:31;5.13;;;2.55;;
78209;SDS011;67485;48.816;9.930;2024-01-15T14:02:57;6.50;;;2.70;;
78209;SDS011;67485;48.816;9.930;2024-01-15T14:05:23;6.10;;;2.42;;
78209;SDS011;67485;48.816;9.930;2024-01-15T14:07:49;4.38;;;2.38;;
78209;SDS011;67485;48.816;9.930;2024-01-15T14:10:14;6.30;;;2.60;;
78209;SDS011;67485;48.816;9.930;2024-01-15T14:12:40;6.38;;;2.70;;
78209;SDS011;67485;48.816;9.930;2024-01-15T14:15:06;6.33;;;2.40;;
78209;SDS011;67485;48.816;9.930;2024-01-15T14:17:32;4.53;;;2.20;;
78209;SDS011;67485;48.816;9.930;2024-01-15T14:19:58;10.18;;;3.25;;
78209;SDS011;67485;48.816;9.930;2024-01-15T14:22:24;12.20;;;7.07;;
78209;SDS011;67485;48.816;9.930;2024-01-15T14:24:50;12.32;;;5.15;;
78209;SDS011;67485;48.816;9.930;2024-01-15T14:27:16;6.95;;;3.03;;
78209;SDS011;67485;48.816;9.930;2024-01-15T14:29:42;7.20;;;3.70;;
78209;SDS011;67485;48.816;9.930;2024-01-15T14:32:07;6.50;;;3.58;;
78209;SDS011;67485;48.816;9.930;2024-01-15T14:34:33;5.27;;;3.00;;
78209;SDS011;67485;48.816;9.930;2024-01-15T14:37:01;8.30;;;3.85;;
78209;SDS011;67485;48.816;9.930;2024-01-15T14:39:27;8.88;;;4.80;;
78209;SDS011;67485;48.816;9.930;2024-01-15T14:41:52;9.02;;;5.88;;
78209;SDS011;67485;48.816;9.930;2024-01-15T14:44:18;17.25;;;10.18;;
78209;SDS011;67485;48.816;9.930;2024-01-15T14:46:44;12.68;;;7.50;;